Time;durP1;ratioP1;P1;durP2;ratioP2;P2;SDS_P1;SDS_P2;PMS_P1;PMS_P2;Temp;Humidity;BMP_temperature;BMP_pressure;BME280_temperature;BME280_humidity;BME280_pressure;Samples;Min_cycle;Max_cycle;Signal;HPM_P1;HPM_P2
2022/01/01 00:00:45;;;;;;;13.63;9.57;;;;;;;12.77;92.64;101632.06;4970491;28;20298;-61
2022/01/01 00:03:14;;;;;;;12.80;8.50;;;;;;;12.82;92.38;101630.72;4969419;28;20214;-61
2022/01/01 00:05:42;;;;;;;15.20;8.00;;;;;;;12.80;92.51;101635.31;4964636;28;20567;-61
2022/01/01 00:08:11;;;;;;;13.17;8.10;;;;;;;12.73;93.02;101628.00;4967624;28;20227;-61
2022/01/01 00:10:39;;;;;;;13.50;7.53;;;;;;;12.72;93.32;101624.50;4971070;28;20237;-61
2022/01/01 00:13:16;;;;;;;12.17;8.40;;;;;;;12.74;92.90;101619.06;4969173;28;20944;-60
2022/01/01 00:15:43;;;;;;;10.77;7.33;;;;;;;12.75;92.81;101620.75;4972588;28;20248;-62
2022/01/01 00:18:11;;;;;;;11.40;8.27;;;;;;;12.76;92.88;101614.41;4975660;28;20218;-60
2022/01/01 00:20:40;;;;;;;10.20;7.43;;;;;;;12.75;92.93;101616.22;4972976;28;20214;-62
2022/01/01 00:23:08;;;;;;;10.60;7.60;;;;;;;12.79;92.18;101622.16;4968463;28;20240;-62
2022/01/01 00:25:35;;;;;;;11.37;7.47;;;;;;;12.74;93.08;101613.72;4966572;28;20317;-62
2022/01/01 00:28:05;;;;;;;17.03;11.73;;;;;;;12.70;93.02;101607.81;4970137;28;20322;-62
2022/01/01 00:30:32;;;;;;;11.07;7.87;;;;;;;12.78;92.77;101609.81;4971888;28;20242;-63
2022/01/01 00:33:00;;;;;;;13.67;7.50;;;;;;;12.79;92.39;101615.00;4970385;28;20240;-61
2022/01/01 00:35:28;;;;;;;13.40;9.50;;;;;;;12.81;92.25;101610.41;4970393;28;20219;-61
2022/01/01 00:37:57;;;;;;;11.83;7.07;;;;;;;12.74;92.55;101603.09;4971113;28;20214;-61
2022/01/01 00:40:24;;;;;;;9.43;6.83;;;;;;;12.62;93.50;101604.16;4970088;28;20303;-62
2022/01/01 00:42:52;;;;;;;14.97;9.93;;;;;;;12.56;94.02;101602.88;4958301;28;20215;-62
2022/01/01 00:45:20;;;;;;;13.53;8.23;;;;;;;12.66;93.34;101594.94;4976212;28;20399;-62
2022/01/01 00:47:47;;;;;;;12.73;7.93;;;;;;;12.66;93.59;101605.59;4972357;28;20646;-61
2022/01/01 00:50:15;;;;;;;13.23;7.47;;;;;;;12.65;93.82;101606.56;4969734;28;20227;-61
2022/01/01 00:52:44;;;;;;;10.30;7.20;;;;;;;12.70;93.25;101609.63;4969382;28;20751;-62
2022/01/01 00:55:13;;;;;;;11.00;7.60;;;;;;;12.73;92.82;101615.56;4970999;28;20622;-62
2022/01/01 00:57:41;;;;;;;12.60;8.33;;;;;;;12.66;93.10;101611.75;4972188;28;20224;-62
2022/01/01 01:00:10;;;;;;;14.60;8.87;;;;;;;12.63;93.36;101612.00;4969938;28;20224;-62
2022/01/01 01:02:38;;;;;;;14.33;9.40;;;;;;;12.68;93.15;101603.59;4968808;28;20303;-62
2022/01/01 01:05:06;;;;;;;17.07;8.20;;;;;;;12.70;92.55;101618.47;4968397;28;20570;-60
2022/01/01 01:07:34;;;;;;;14.27;8.50;;;;;;;12.58;93.77;101619.53;4971520;28;20204;-60
2022/01/01 01:10:01;;;;;;;13.53;8.33;;;;;;;12.62;93.56;101620.97;4958692;28;20213;-60
2022/01/01 01:12:38;;;;;;;15.87;9.33;;;;;;;12.67;93.01;101623.19;4964226;28;20246;-61
2022/01/01 01:15:07;;;;;;;17.50;10.07;;;;;;;12.47;94.17;101627.63;4968154;28;20213;-62
2022/01/01 01:17:35;;;;;;;13.73;8.93;;;;;;;12.51;94.23;101629.03;4970716;28;20640;-61
2022/01/01 01:20:03;;;;;;;16.47;9.90;;;;;;;12.47;93.85;101621.44;4955116;28;20313;-61
2022/01/01 01:22:31;;;;;;;15.87;9.90;;;;;;;12.59;94.04;101629.19;4969259;28;20676;-61
2022/01/01 01:25:00;;;;;;;14.07;9.73;;;;;;;12.45;94.13;101624.25;4969292;28;20252;-61
2022/01/01 01:27:29;;;;;;;14.13;9.47;;;;;;;12.38;94.66;101629.25;4969245;28;20699;-61
2022/01/01 01:29:59;;;;;;;15.40;9.33;;;;;;;12.51;94.10;101625.50;4969892;28;20308;-61
2022/01/01 01:32:27;;;;;;;15.10;9.53;;;;;;;12.52;93.95;101635.19;4971581;28;20305;-60
2022/01/01 01:34:54;;;;;;;16.50;9.53;;;;;;;12.41;94.22;101634.28;4972328;28;20225;-61
2022/01/01 01:37:23;;;;;;;14.93;9.80;;;;;;;12.56;93.56;101640.13;4972394;28;20222;-61
2022/01/01 01:39:50;;;;;;;15.23;9.47;;;;;;;12.62;93.68;101636.09;4973422;28;20258;-61
2022/01/01 01:42:18;;;;;;;13.30;8.83;;;;;;;12.46;94.50;101636.56;4975415;28;20245;-62
2022/01/01 01:44:48;;;;;;;13.67;8.63;;;;;;;12.36;94.77;101636.50;4973850;28;20258;-61
2022/01/01 01:47:26;;;;;;;12.70;8.37;;;;;;;12.34;95.71;101637.59;4973824;28;20225;-61
2022/01/01 01:49:55;;;;;;;13.90;7.67;;;;;;;12.41;95.58;101644.94;4973577;28;20210;-61
2022/01/01 01:52:24;;;;;;;12.17;7.53;;;;;;;12.21;95.76;101643.16;4971483;28;20229;-59
2022/01/01 01:54:52;;;;;;;12.13;7.40;;;;;;;12.05;98.10;101642.72;4972930;28;20323;-60
2022/01/01 01:57:20;;;;;;;10.47;7.07;;;;;;;12.09;98.11;101643.34;4975704;28;20217;-61
2022/01/01 01:59:48;;;;;;;12.10;7.80;;;;;;;12.21;97.17;101648.47;4973694;28;20264;-60
2022/01/01 02:02:17;;;;;;;12.17;7.63;;;;;;;12.39;95.31;101654.88;4972084;28;20229;-61
2022/01/01 02:04:46;;;;;;;12.00;7.40;;;;;;;12.34;95.18;101646.44;4972744;28;20276;-61
2022/01/01 02:07:14;;;;;;;11.10;7.03;;;;;;;12.24;96.33;101648.19;4973985;28;20312;-60
2022/01/01 02:09:42;;;;;;;14.17;7.07;;;;;;;12.33;95.15;101652.72;4964773;28;20684;-60
2022/01/01 02:12:10;;;;;;;11.43;6.60;;;;;;;12.26;95.95;101651.56;4970827;28;20239;-60
2022/01/01 02:15:07;;;;;;;10.57;6.80;;;;;;;12.31;94.93;101654.66;4972096;28;20299;-60
2022/01/01 02:17:36;;;;;;;10.73;6.90;;;;;;;12.17;95.64;101652.34;4972873;28;20216;-61
2022/01/01 02:20:13;;;;;;;10.33;6.93;;;;;;;12.19;95.76;101645.09;4972538;28;20238;-61
2022/01/01 02:22:46;;;;;;;10.60;6.73;;;;;;;12.26;95.78;101651.56;4972140;28;20287;-61
2022/01/01 02:25:15;;;;;;;11.03;6.90;;;;;;;12.18;96.64;101648.72;4961216;28;20631;-61
2022/01/01 02:27:43;;;;;;;10.47;6.73;;;;;;;12.21;95.84;101648.47;4972737;28;20323;-61
2022/01/01 02:30:14;;;;;;;11.90;7.07;;;;;;;12.24;95.69;101642.88;4972428;28;20215;-61
2022/01/01 02:32:42;;;;;;;9.10;5.77;;;;;;;12.12;96.58;101643.94;4972121;28;20233;-61
2022/01/01 02:35:12;;;;;;;13.40;6.40;;;;;;;12.24;95.61;101642.88;4970867;28;20228;-62
2022/01/01 02:37:41;;;;;;;13.43;6.87;;;;;;;12.30;94.75;101642.38;4974327;28;20248;-60
2022/01/01 02:40:11;;;;;;;9.67;6.13;;;;;;;12.13;96.43;101634.97;4973061;28;20213;-61
2022/01/01 02:42:42;;;;;;;9.70;6.17;;;;;;;12.17;96.18;101639.06;4980458;28;20228;-61
2022/01/01 02:45:11;;;;;;;9.67;6.20;;;;;;;12.29;95.21;101640.69;4977981;28;20220;-61
2022/01/01 02:47:40;;;;;;;9.30;5.70;;;;;;;12.18;95.72;101630.09;4970835;28;20560;-61
2022/01/01 02:50:09;;;;;;;9.87;5.77;;;;;;;12.26;95.63;101637.44;4974514;28;20208;-61
2022/01/01 02:52:37;;;;;;;9.10;5.63;;;;;;;12.34;94.16;101648.25;4956734;28;20352;-61
2022/01/01 02:55:07;;;;;;;10.13;5.93;;;;;;;12.33;95.07;101641.25;4970466;28;20632;-61
2022/01/01 02:57:35;;;;;;;10.07;6.10;;;;;;;12.41;93.91;101633.44;4972124;28;20301;-61
2022/01/01 03:00:05;;;;;;;10.17;6.17;;;;;;;12.23;94.90;101633.19;4970695;28;20249;-62
2022/01/01 03:02:32;;;;;;;13.70;6.60;;;;;;;12.33;95.18;101625.28;4968583;28;20211;-62
2022/01/01 03:05:00;;;;;;;11.47;6.90;;;;;;;12.30;94.51;101623.75;4974303;28;20219;-60
2022/01/01 03:07:28;;;;;;;8.67;5.77;;;;;;;12.49;93.47;101635.47;4962122;28;20312;-61
2022/01/01 03:09:56;;;;;;;10.77;6.53;;;;;;;12.25;94.22;101625.94;4966282;28;20325;-61
2022/01/01 03:12:25;;;;;;;12.07;6.43;;;;;;;12.32;94.33;101623.59;4969240;28;20234;-61
2022/01/01 03:14:52;;;;;;;11.90;6.50;;;;;;;12.48;93.84;101623.13;4958357;28;20254;-61
2022/01/01 03:17:20;;;;;;;11.83;6.30;;;;;;;12.24;95.08;101621.59;4971411;28;20213;-61
2022/01/01 03:19:48;;;;;;;11.97;6.60;;;;;;;12.42;93.94;101625.34;4970269;28;20682;-62
2022/01/01 03:22:15;;;;;;;9.87;6.53;;;;;;;12.19;95.65;101623.81;4970477;28;20211;-62
2022/01/01 03:24:44;;;;;;;10.40;6.10;;;;;;;12.37;94.94;101622.25;4971951;28;20672;-62
2022/01/01 03:27:12;;;;;;;9.90;6.07;;;;;;;12.43;94.05;101624.38;4976912;28;20753;-61
2022/01/01 03:29:41;;;;;;;10.63;6.30;;;;;;;12.30;95.00;101620.25;4971771;28;20300;-61
2022/01/01 03:32:09;;;;;;;10.33;6.03;;;;;;;12.38;94.43;101615.94;4970040;28;20668;-60
2022/01/01 03:34:36;;;;;;;11.13;6.53;;;;;;;12.33;94.60;101611.97;4969996;28;20302;-61
2022/01/01 03:37:04;;;;;;;9.17;5.80;;;;;;;12.37;94.36;101616.91;4970575;28;20204;-61
2022/01/01 03:39:32;;;;;;;9.80;5.77;;;;;;;12.41;93.54;101606.84;4971990;28;20647;-61
2022/01/01 03:42:00;;;;;;;10.53;6.60;;;;;;;12.30;94.89;101612.25;4971943;28;20239;-61
2022/01/01 03:44:27;;;;;;;9.47;6.00;;;;;;;12.26;94.94;101608.16;4970701;28;20222;-62
2022/01/01 03:47:07;;;;;;;11.80;6.60;;;;;;;12.08;96.36;101610.56;4971600;28;20738;-59
2022/01/01 03:49:35;;;;;;;11.23;6.20;;;;;;;12.31;95.36;101617.44;4971895;28;20309;-61
2022/01/01 03:52:03;;;;;;;9.17;6.60;;;;;;;12.34;94.55;101616.34;4972503;28;20670;-62
2022/01/01 03:54:30;;;;;;;11.87;6.13;;;;;;;12.43;93.95;101616.38;4971108;28;20227;-60
2022/01/01 03:56:58;;;;;;;9.67;6.80;;;;;;;12.30;94.28;101613.09;4970053;28;20684;-62
2022/01/01 03:59:26;;;;;;;11.57;7.30;;;;;;;12.40;93.96;101607.84;4969525;28;20202;-61
2022/01/01 04:01:54;;;;;;;9.30;6.40;;;;;;;12.47;93.56;101616.97;4970197;28;20259;-61
2022/01/01 04:04:25;;;;;;;10.70;6.37;;;;;;;12.50;93.04;101629.16;4971193;28;20224;-60
2022/01/01 04:06:54;;;;;;;9.63;5.93;;;;;;;12.52;92.83;101619.22;4971343;28;20692;-61
2022/01/01 04:09:22;;;;;;;11.50;6.37;;;;;;;12.47;93.52;101621.44;4970580;28;20405;-61
2022/01/01 04:11:51;;;;;;;12.33;7.27;;;;;;;12.39;92.78;101617.63;4970327;28;20652;-62
2022/01/01 04:14:19;;;;;;;13.17;7.20;;;;;;;12.29;93.63;101619.41;4971657;28;20309;-62
2022/01/01 04:16:47;;;;;;;11.90;7.50;;;;;;;12.40;93.30;101615.81;4970346;28;20211;-61
2022/01/01 04:19:15;;;;;;;12.33;6.93;;;;;;;12.46;93.32;101620.59;4972510;28;20308;-61
2022/01/01 04:21:44;;;;;;;11.07;6.40;;;;;;;12.41;92.78;101618.31;4969354;28;20243;-61
2022/01/01 04:24:11;;;;;;;9.97;5.83;;;;;;;12.49;92.61;101625.63;4958225;28;20223;-60
2022/01/01 04:26:39;;;;;;;11.40;6.90;;;;;;;12.50;92.47;101632.66;4960482;28;20654;-62
2022/01/01 04:29:07;;;;;;;10.50;6.30;;;;;;;12.49;91.99;101630.97;4972653;28;20213;-62
2022/01/01 04:31:34;;;;;;;11.77;6.73;;;;;;;12.54;91.79;101635.91;4971115;28;20216;-61
2022/01/01 04:34:02;;;;;;;10.33;7.00;;;;;;;12.52;91.97;101630.72;4970420;28;20253;-61
2022/01/01 04:36:30;;;;;;;11.13;7.17;;;;;;;12.51;92.05;101634.34;4971017;28;20216;-63
2022/01/01 04:38:59;;;;;;;11.37;6.67;;;;;;;12.36;92.66;101633.00;4971582;28;20374;-62
2022/01/01 04:41:27;;;;;;;10.53;7.00;;;;;;;12.43;92.36;101643.00;4972192;28;20298;-60
2022/01/01 04:43:54;;;;;;;12.97;7.70;;;;;;;12.54;92.10;101642.06;4973416;28;20218;-61
2022/01/01 04:46:22;;;;;;;12.37;8.13;;;;;;;12.57;91.52;101649.81;4969503;28;20302;-60
2022/01/01 04:48:50;;;;;;;14.73;8.47;;;;;;;12.50;91.98;101655.75;4972063;28;20676;-63
2022/01/01 04:51:18;;;;;;;13.63;7.90;;;;;;;12.48;91.94;101650.59;4969140;28;20211;-61
2022/01/01 04:53:46;;;;;;;12.03;7.30;;;;;;;12.28;92.44;101644.31;4971892;28;20600;-60
2022/01/01 04:56:19;;;;;;;11.93;7.50;;;;;;;12.48;91.80;101641.75;4970753;28;20220;-60
2022/01/01 04:58:47;;;;;;;11.57;7.40;;;;;;;12.44;92.04;101636.69;4969850;28;20687;-60
2022/01/01 05:01:15;;;;;;;13.57;7.93;;;;;;;12.51;91.18;101630.84;4969884;28;20305;-62
2022/01/01 05:03:43;;;;;;;14.80;8.20;;;;;;;12.47;91.63;101629.44;4973209;28;20228;-60
2022/01/01 05:06:11;;;;;;;12.67;8.97;;;;;;;12.43;92.14;101632.34;4970980;28;20623;-61
2022/01/01 05:08:39;;;;;;;13.07;8.90;;;;;;;12.40;92.18;101623.81;4971187;28;20304;-63
2022/01/01 05:11:07;;;;;;;11.87;8.10;;;;;;;12.52;91.71;101629.88;4973197;28;20690;-62
2022/01/01 05:13:36;;;;;;;14.10;8.33;;;;;;;12.49;91.38;101624.84;4975383;28;20757;-62
2022/01/01 05:16:04;;;;;;;16.20;9.27;;;;;;;12.32;92.90;101624.44;4975055;28;20252;-63
2022/01/01 05:18:36;;;;;;;13.63;8.67;;;;;;;12.47;92.14;101629.44;4973169;28;20209;-60
2022/01/01 05:21:04;;;;;;;13.57;8.30;;;;;;;12.53;91.75;101632.41;4974839;28;20236;-61
2022/01/01 05:23:31;;;;;;;13.93;8.07;;;;;;;12.47;91.79;101632.09;4972247;28;20252;-62
2022/01/01 05:25:59;;;;;;;14.83;8.93;;;;;;;12.50;91.61;101629.16;4973848;28;20241;-61
2022/01/01 05:28:27;;;;;;;12.67;8.50;;;;;;;12.52;91.74;101640.50;4972296;28;20304;-63
2022/01/01 05:30:56;;;;;;;14.33;8.70;;;;;;;12.57;91.28;101640.97;4975175;28;20215;-61
2022/01/01 05:33:24;;;;;;;12.17;8.23;;;;;;;12.50;91.39;101637.97;4974068;28;20623;-61
2022/01/01 05:35:51;;;;;;;13.67;9.07;;;;;;;12.46;91.82;101641.03;4971659;28;20221;-62
2022/01/01 05:38:19;;;;;;;13.53;8.57;;;;;;;12.55;91.51;101653.56;4971853;28;20214;-62
2022/01/01 05:40:54;;;;;;;15.10;8.40;;;;;;;12.41;92.37;101652.06;4972252;28;20579;-61
2022/01/01 05:43:22;;;;;;;14.77;8.97;;;;;;;12.47;92.06;101646.25;4972757;28;20221;-61
2022/01/01 05:45:51;;;;;;;16.87;10.00;;;;;;;12.47;92.38;101653.38;4974822;28;20221;-62
2022/01/01 05:48:20;;;;;;;13.93;9.53;;;;;;;12.53;91.61;101652.84;4972658;28;20461;-60
2022/01/01 05:50:50;;;;;;;14.20;9.00;;;;;;;12.49;91.92;101646.94;4972157;28;20304;-63
2022/01/01 05:53:19;;;;;;;15.73;9.70;;;;;;;12.53;91.86;101648.38;4972214;28;20728;-60
2022/01/01 05:55:46;;;;;;;14.83;9.83;;;;;;;12.53;91.34;101644.84;4959458;28;20706;-61
2022/01/01 05:58:15;;;;;;;16.50;9.60;;;;;;;12.48;91.45;101639.09;4973206;28;20217;-62
2022/01/01 06:00:42;;;;;;;19.27;10.73;;;;;;;12.29;93.45;101642.50;4973588;28;20599;-60
2022/01/01 06:03:10;;;;;;;14.87;9.87;;;;;;;12.48;92.98;101647.94;4971879;28;20320;-61
2022/01/01 06:05:39;;;;;;;16.07;10.10;;;;;;;12.52;92.40;101640.50;4972680;28;20213;-61
2022/01/01 06:08:07;;;;;;;15.13;9.47;;;;;;;12.30;93.51;101646.84;4973114;28;20629;-60
2022/01/01 06:10:35;;;;;;;14.20;8.97;;;;;;;11.98;95.85;101652.19;4975638;28;20294;-61
2022/01/01 06:13:06;;;;;;;15.67;9.63;;;;;;;11.92;96.47;101647.41;4973235;28;20227;-60
2022/01/01 06:15:34;;;;;;;13.93;8.60;;;;;;;11.88;97.08;101645.97;4973031;28;20699;-61
2022/01/01 06:18:02;;;;;;;14.23;8.13;;;;;;;11.87;97.34;101639.00;4971738;28;20252;-59
2022/01/01 06:20:30;;;;;;;13.70;8.20;;;;;;;11.74;97.70;101631.16;4973743;28;20247;-61
2022/01/01 06:23:06;;;;;;;14.47;9.07;;;;;;;11.73;98.56;101626.81;4972909;28;20571;-61
2022/01/01 06:25:34;;;;;;;14.87;8.87;;;;;;;11.87;96.36;101633.66;4971082;28;20246;-61
2022/01/01 06:28:01;;;;;;;11.93;7.97;;;;;;;11.79;96.57;101634.28;4972308;28;20281;-62
2022/01/01 06:30:33;;;;;;;11.97;8.17;;;;;;;11.70;97.99;101635.84;4972727;28;20215;-60
2022/01/01 06:33:02;;;;;;;12.87;8.20;;;;;;;11.76;97.57;101639.03;4959006;28;20219;-60
2022/01/01 06:35:30;;;;;;;11.30;7.40;;;;;;;11.85;96.51;101635.59;4975648;28;20416;-60
2022/01/01 06:37:57;;;;;;;11.23;7.50;;;;;;;11.82;96.34;101634.03;4971165;28;20239;-60
2022/01/01 06:40:27;;;;;;;11.97;7.57;;;;;;;11.72;97.67;101634.88;4973170;28;20242;-59
2022/01/01 06:42:55;;;;;;;11.53;7.20;;;;;;;11.79;96.98;101633.44;4969808;28;20306;-61
2022/01/01 06:45:22;;;;;;;12.63;7.80;;;;;;;11.83;96.70;101627.75;4972997;28;20207;-61
2022/01/01 06:47:50;;;;;;;13.40;7.33;;;;;;;11.84;96.62;101639.22;4973674;28;20641;-61
2022/01/01 06:50:18;;;;;;;12.63;7.77;;;;;;;11.96;95.37;101639.03;4971052;28;20218;-60
2022/01/01 06:52:46;;;;;;;11.40;7.27;;;;;;;11.60;97.53;101637.63;4971545;28;20217;-61
2022/01/01 06:55:14;;;;;;;14.03;8.10;;;;;;;11.62;98.29;101650.75;4961371;28;20231;-60
2022/01/01 06:57:44;;;;;;;13.97;6.90;;;;;;;11.68;96.95;101644.94;4972194;28;20562;-61
2022/01/01 07:00:13;;;;;;;12.93;7.30;;;;;;;11.36;99.76;101644.06;4973450;28;20221;-61
2022/01/01 07:02:42;;;;;;;11.30;7.27;;;;;;;11.44;99.18;101644.28;4969928;28;20691;-61
2022/01/01 07:05:11;;;;;;;12.73;7.60;;;;;;;11.36;99.47;101654.69;4972680;28;20223;-61
2022/01/01 07:07:39;;;;;;;10.57;7.17;;;;;;;11.35;99.74;101661.81;4971025;28;20210;-61
2022/01/01 07:10:09;;;;;;;12.43;7.40;;;;;;;11.40;99.01;101662.31;4970704;28;20210;-61
2022/01/01 07:12:38;;;;;;;11.07;7.40;;;;;;;11.27;99.62;101661.59;4971667;28;20214;-61
2022/01/01 07:15:09;;;;;;;12.03;7.40;;;;;;;11.60;98.13;101672.16;4970619;28;20230;-61
2022/01/01 07:17:37;;;;;;;11.67;6.40;;;;;;;11.69;96.34;101679.38;4970698;28;20573;-61
2022/01/01 07:20:06;;;;;;;12.87;7.27;;;;;;;11.82;95.45;101686.34;4964121;28;20254;-61
2022/01/01 07:22:40;;;;;;;11.80;6.97;;;;;;;11.86;95.02;101685.13;4967649;28;20246;-61
2022/01/01 07:25:09;;;;;;;11.60;6.43;;;;;;;11.84;94.41;101703.88;4972597;28;20233;-61
2022/01/01 07:27:36;;;;;;;10.53;7.07;;;;;;;11.96;93.89;101694.03;4969586;28;20628;-60
2022/01/01 07:30:08;;;;;;;12.20;6.73;;;;;;;11.96;93.76;101702.03;4971384;28;20305;-60
2022/01/01 07:32:43;;;;;;;11.47;6.07;;;;;;;11.65;94.56;101698.34;4969621;28;20248;-61
2022/01/01 07:35:12;;;;;;;11.77;7.00;;;;;;;11.77;95.02;101712.47;4970155;28;20971;-60
2022/01/01 07:37:40;;;;;;;11.07;6.10;;;;;;;11.53;95.38;101723.22;4972999;28;20211;-60
2022/01/01 07:40:11;;;;;;;15.60;7.03;;;;;;;11.67;96.02;101726.47;4970112;28;20221;-59
2022/01/01 07:42:39;;;;;;;10.87;7.03;;;;;;;11.48;96.20;101722.78;4962296;28;20254;-60
2022/01/01 07:45:10;;;;;;;11.40;6.80;;;;;;;11.53;96.65;101726.72;4961172;28;20211;-61
2022/01/01 07:47:38;;;;;;;12.10;7.67;;;;;;;11.40;97.23;101731.34;4971957;28;20224;-62
2022/01/01 07:50:07;;;;;;;13.50;6.70;;;;;;;11.45;97.32;101742.44;4971859;28;20253;-60
2022/01/01 07:52:36;;;;;;;15.20;7.60;;;;;;;11.42;97.91;101737.41;4957716;28;20260;-59
2022/01/01 07:55:04;;;;;;;11.87;6.73;;;;;;;11.10;100.00;101739.09;4967408;28;20446;-62
2022/01/01 07:57:32;;;;;;;12.63;7.30;;;;;;;11.26;99.08;101739.56;4968968;28;20222;-60
2022/01/01 07:59:59;;;;;;;14.93;7.77;;;;;;;11.31;99.35;101735.59;4972558;28;20305;-61
2022/01/01 08:02:28;;;;;;;12.80;7.00;;;;;;;11.28;99.10;101738.47;4954575;28;20212;-61
2022/01/01 08:04:56;;;;;;;13.30;7.97;;;;;;;11.29;99.02;101744.63;4972355;28;20225;-60
2022/01/01 08:07:24;;;;;;;11.13;7.50;;;;;;;11.35;98.67;101749.44;4964259;28;20237;-61
2022/01/01 08:10:13;;;;;;;12.93;7.37;;;;;;;11.40;98.46;101757.91;4964112;28;20242;-61
2022/01/01 08:12:41;;;;;;;12.40;7.60;;;;;;;11.54;97.10;101760.31;4970481;28;20215;-61
2022/01/01 08:15:09;;;;;;;14.03;7.00;;;;;;;11.61;96.43;101758.84;4972234;28;20235;-61
2022/01/01 08:17:38;;;;;;;11.57;7.30;;;;;;;11.73;96.16;101753.50;4955447;28;20584;-60
2022/01/01 08:20:06;;;;;;;12.53;7.00;;;;;;;11.47;97.55;101753.78;4969399;28;20310;-62
2022/01/01 08:22:34;;;;;;;12.13;7.50;;;;;;;11.46;97.53;101746.78;4968737;28;20215;-62
2022/01/01 08:25:02;;;;;;;12.10;7.60;;;;;;;11.46;98.17;101746.78;4970379;28;20242;-61
2022/01/01 08:27:29;;;;;;;12.03;7.23;;;;;;;11.45;97.86;101753.06;4969706;28;20707;-61
2022/01/01 08:29:57;;;;;;;12.03;7.00;;;;;;;11.52;98.13;101746.28;4971761;28;20668;-62
2022/01/01 08:32:25;;;;;;;13.50;7.40;;;;;;;11.22;99.88;101754.06;4970979;28;20597;-60
2022/01/01 08:34:54;;;;;;;13.07;7.43;;;;;;;11.49;97.94;101746.56;4971343;28;20267;-60
2022/01/01 08:37:22;;;;;;;14.43;8.13;;;;;;;11.41;98.46;101748.97;4970533;28;20651;-60
2022/01/01 08:39:49;;;;;;;14.10;8.63;;;;;;;11.33;99.61;101735.47;4971296;28;20253;-60
2022/01/01 08:42:17;;;;;;;12.00;8.23;;;;;;;11.40;98.15;101736.66;4974431;28;20218;-60
2022/01/01 08:44:45;;;;;;;16.63;8.73;;;;;;;11.23;100.00;101739.81;4968292;28;20211;-61
2022/01/01 08:47:12;;;;;;;16.60;10.70;;;;;;;11.39;99.85;101744.75;4971050;28;20222;-61
2022/01/01 08:49:40;;;;;;;14.43;7.93;;;;;;;11.28;100.00;101740.28;4968939;28;20298;-61
2022/01/01 08:52:13;;;;;;;12.83;7.63;;;;;;;11.38;99.93;101743.91;4970180;28;20325;-61
2022/01/01 08:54:40;;;;;;;16.23;8.43;;;;;;;11.40;99.77;101741.13;4970760;28;20632;-59
2022/01/01 08:57:09;;;;;;;15.27;8.60;;;;;;;11.23;99.95;101745.97;4971913;28;20309;-61
2022/01/01 08:59:38;;;;;;;20.83;8.63;;;;;;;11.50;98.56;101737.63;4968935;28;20251;-61
2022/01/01 09:02:05;;;;;;;14.70;8.47;;;;;;;11.24;99.63;101745.03;4969431;28;20230;-61
2022/01/01 09:04:33;;;;;;;12.90;8.20;;;;;;;11.22;99.78;101738.97;4971296;28;20650;-61
2022/01/01 09:07:01;;;;;;;13.00;7.40;;;;;;;11.33;99.25;101735.47;4969133;28;20211;-62
2022/01/01 09:09:30;;;;;;;13.63;8.17;;;;;;;11.53;97.82;101740.00;4969535;28;20215;-62
2022/01/01 09:11:58;;;;;;;11.27;7.77;;;;;;;11.46;97.93;101730.84;4970418;28;20297;-59
2022/01/01 09:14:26;;;;;;;14.10;8.07;;;;;;;11.49;97.71;101724.47;4969007;28;20211;-61
2022/01/01 09:16:54;;;;;;;14.20;7.47;;;;;;;11.50;97.13;101721.69;4970496;28;20234;-61
2022/01/01 09:19:22;;;;;;;18.30;8.43;;;;;;;11.44;97.67;101727.47;4969253;28;20222;-61
2022/01/01 09:21:50;;;;;;;14.30;8.53;;;;;;;11.52;97.15;101733.00;4968937;28;20301;-60
2022/01/01 09:24:17;;;;;;;14.57;8.00;;;;;;;11.73;95.99;101742.88;4959301;28;20233;-60
2022/01/01 09:26:46;;;;;;;14.00;8.37;;;;;;;11.64;96.57;101737.34;4970966;28;20257;-61
2022/01/01 09:29:14;;;;;;;13.50;7.87;;;;;;;11.54;97.01;101733.75;4971606;28;20209;-61
2022/01/01 09:31:43;;;;;;;12.53;7.47;;;;;;;11.57;96.98;101728.19;4969765;28;20690;-62
2022/01/01 09:34:12;;;;;;;15.43;8.03;;;;;;;11.46;98.32;101733.50;4967406;28;20256;-61
2022/01/01 09:36:40;;;;;;;17.07;9.00;;;;;;;11.59;97.29;101734.22;4969365;28;20342;-62
2022/01/01 09:39:08;;;;;;;14.80;8.13;;;;;;;11.83;96.16;101739.38;4969991;28;20298;-61
2022/01/01 09:41:40;;;;;;;14.27;8.50;;;;;;;11.77;96.55;101739.03;4971088;28;20680;-62
2022/01/01 09:44:13;;;;;;;14.93;7.70;;;;;;;11.82;95.25;101739.50;4968417;28;20347;-61
2022/01/01 09:46:41;;;;;;;15.30;8.77;;;;;;;11.80;94.94;101738.78;4969162;28;20217;-60
2022/01/01 09:49:09;;;;;;;12.00;7.43;;;;;;;11.78;96.00;101743.41;4968674;28;20213;-61
2022/01/01 09:51:37;;;;;;;13.23;8.13;;;;;;;11.88;95.22;101747.81;4969176;28;20304;-62
2022/01/01 09:54:04;;;;;;;19.50;8.87;;;;;;;11.89;95.71;101733.56;4969692;28;20683;-60
2022/01/01 09:56:32;;;;;;;13.73;8.83;;;;;;;12.01;94.69;101742.34;4958817;28;20327;-61
2022/01/01 09:59:00;;;;;;;14.47;8.90;;;;;;;12.00;94.45;101746.81;4967298;28;20651;-61
2022/01/01 10:01:29;;;;;;;15.10;9.27;;;;;;;11.98;94.65;101743.44;4961991;28;20587;-62
2022/01/01 10:03:59;;;;;;;14.30;8.10;;;;;;;12.05;94.15;101749.09;4970384;28;20254;-61
2022/01/01 10:06:29;;;;;;;12.07;7.83;;;;;;;12.02;94.81;101750.19;4972763;28;20206;-61
2022/01/01 10:08:58;;;;;;;11.50;7.37;;;;;;;11.98;95.31;101745.25;4971884;28;20214;-61
2022/01/01 10:11:27;;;;;;;12.77;8.13;;;;;;;12.29;93.39;101733.78;4972740;28;20239;-61
2022/01/01 10:13:57;;;;;;;14.30;8.57;;;;;;;12.38;93.02;101729.50;4970344;28;20223;-63
2022/01/01 10:16:25;;;;;;;12.10;8.03;;;;;;;12.11;94.25;101724.66;4973022;28;20285;-61
2022/01/01 10:18:55;;;;;;;18.70;10.27;;;;;;;12.18;93.91;101722.31;4973475;28;20217;-61
2022/01/01 10:21:27;;;;;;;13.93;9.43;;;;;;;12.16;94.64;101721.59;4970914;28;20238;-61
2022/01/01 10:23:56;;;;;;;15.40;8.43;;;;;;;12.43;92.61;101733.44;4970828;28;20242;-62
2022/01/01 10:29:13;;;;;;;12.67;7.07;;;;;;;12.39;92.71;101718.72;4972092;28;20267;-61
2022/01/01 10:31:54;;;;;;;12.30;7.53;;;;;;;12.40;92.58;101715.06;4973660;28;20647;-62
2022/01/01 10:34:26;;;;;;;13.23;7.90;;;;;;;12.41;93.10;101710.59;4972027;28;20214;-63
2022/01/01 10:36:55;;;;;;;11.93;6.93;;;;;;;12.53;92.20;101717.53;4971051;28;20321;-61
2022/01/01 10:39:24;;;;;;;12.97;7.03;;;;;;;12.28;93.33;101716.13;4970397;28;20653;-61
2022/01/01 10:41:53;;;;;;;11.40;7.07;;;;;;;12.62;91.69;101715.91;4972871;28;20297;-61
2022/01/01 10:44:23;;;;;;;13.40;7.27;;;;;;;12.55;91.84;101710.28;4970604;28;20257;-60
2022/01/01 10:46:51;;;;;;;10.30;6.00;;;;;;;12.64;92.02;101704.16;4973604;28;20200;-61
2022/01/01 10:49:51;;;;;;;12.57;6.47;;;;;;;12.66;91.45;101709.38;4969451;28;20581;-62
2022/01/01 10:52:23;;;;;;;8.73;5.63;;;;;;;12.58;91.77;101707.34;4970719;28;20375;-61
2022/01/01 10:54:53;;;;;;;10.83;6.17;;;;;;;12.84;90.76;101706.94;4971386;28;20308;-62
2022/01/01 10:57:26;;;;;;;8.73;5.50;;;;;;;12.82;90.05;101704.41;4970838;28;20325;-61
2022/01/01 11:00:07;;;;;;;9.97;6.00;;;;;;;12.60;90.79;101702.72;4959382;28;20222;-67
2022/01/01 11:02:35;;;;;;;12.40;6.00;;;;;;;12.80;90.05;101709.00;4965878;28;20242;-67
2022/01/01 11:05:06;;;;;;;10.27;5.90;;;;;;;12.64;90.26;101706.00;4972448;28;20213;-61
2022/01/01 11:07:35;;;;;;;10.37;6.10;;;;;;;12.69;90.87;101701.94;4969649;28;20214;-60
2022/01/01 11:10:03;;;;;;;10.70;6.03;;;;;;;12.93;89.09;101709.63;4971660;28;20242;-62
2022/01/01 11:12:32;;;;;;;10.13;6.10;;;;;;;12.70;89.98;101700.97;4970059;28;20217;-63
2022/01/01 11:15:07;;;;;;;9.27;5.20;;;;;;;12.67;90.24;101703.88;4972182;28;20265;-60
2022/01/01 11:17:37;;;;;;;11.47;6.80;;;;;;;12.71;89.92;101701.81;4972995;28;20727;-60
2022/01/01 11:20:10;;;;;;;8.80;5.73;;;;;;;12.44;91.13;101697.03;4971811;28;20215;-61
2022/01/01 11:22:46;;;;;;;9.77;6.43;;;;;;;12.70;90.57;101695.66;4969301;28;20425;-63
2022/01/01 11:25:14;;;;;;;9.53;6.27;;;;;;;12.73;90.43;101694.56;4970706;28;20916;-62
2022/01/01 11:27:43;;;;;;;12.60;5.87;;;;;;;12.76;90.05;101688.94;4970319;28;20676;-62